createdAt,value
2018-11-27T00:02:20.749Z,140.00
2018-11-27T00:04:52.854Z,150.50
2018-11-27T00:07:24.667Z,146.25
2018-11-27T00:09:56.460Z,141.00
2018-11-27T00:12:28.267Z,134.25
2018-11-27T00:14:59.750Z,140.75
2018-11-27T00:17:31.799Z,143.50
2018-11-27T00:20:04.129Z,148.00
2018-11-27T00:22:35.758Z,138.75
2018-11-27T00:25:09.815Z,141.25
2018-11-27T00:27:41.688Z,133.25
2018-11-27T00:30:16.358Z,144.25
2018-11-27T00:32:48.442Z,139.75
2018-11-27T00:35:21.053Z,145.50
2018-11-27T00:37:53.618Z,144.00
2018-11-27T00:40:25.310Z,144.00
2018-11-27T00:42:57.950Z,136.25
2018-11-27T00:45:29.549Z,144.00
2018-11-27T00:48:01.849Z,144.00
2018-11-27T00:50:34.679Z,148.00
2018-11-27T00:53:06.450Z,154.50
2018-11-27T00:55:38.316Z,147.75
2018-11-27T00:58:09.911Z,141.75
2018-11-27T01:00:42.331Z,150.25
2018-11-27T01:03:13.827Z,148.25
2018-11-27T01:05:46.198Z,149.00
2018-11-27T01:08:18.079Z,144.75
2018-11-27T01:10:50.024Z,140.25
2018-11-27T01:13:21.956Z,137.50
2018-11-27T01:15:54.190Z,138.50
2018-11-27T01:18:25.990Z,132.75
2018-11-27T01:20:58.274Z,144.75
2018-11-27T01:23:29.923Z,146.25
2018-11-27T01:26:01.702Z,144.75
2018-11-27T01:28:33.819Z,151.00
2018-11-27T01:31:05.850Z,157.75
2018-11-27T01:33:38.165Z,159.75
2018-11-27T01:36:09.818Z,167.75
2018-11-27T01:38:41.818Z,174.00
2018-11-27T01:41:14.857Z,164.50
2018-11-27T01:43:46.554Z,160.00
2018-11-27T01:46:18.138Z,144.00
2018-11-27T01:48:50.494Z,159.50
2018-11-27T01:51:22.669Z,154.00
2018-11-27T01:53:54.282Z,154.50
2018-11-27T01:56:28.332Z,160.00
2018-11-27T01:59:00.873Z,165.25
2018-11-27T02:01:32.421Z,151.75
2018-11-27T02:04:05.043Z,165.50
2018-11-27T02:06:40.446Z,156.75
2018-11-27T02:09:15.621Z,154.75
2018-11-27T02:11:47.245Z,159.25
2018-11-27T02:14:19.805Z,147.50
2018-11-27T02:16:52.469Z,159.75
2018-11-27T02:19:26.055Z,168.75
2018-11-27T02:21:59.137Z,172.50
2018-11-27T02:24:30.800Z,168.50
2018-11-27T02:27:03.830Z,175.75
2018-11-27T02:29:35.443Z,187.00
2018-11-27T02:32:07.094Z,186.00
2018-11-27T02:34:38.690Z,188.20
2018-11-27T02:37:10.281Z,185.40
2018-11-27T02:39:45.540Z,185.00
2018-11-27T02:42:17.043Z,177.75
2018-11-27T02:44:48.568Z,174.50
2018-11-27T02:47:19.859Z,167.75
2018-11-27T02:49:52.830Z,169.00
2018-11-27T02:52:24.719Z,173.00
2018-11-27T02:54:56.367Z,180.00
2018-11-27T02:57:32.778Z,185.80
2018-11-27T03:00:05.629Z,179.50
2018-11-27T03:02:41.449Z,177.75
2018-11-27T03:05:29.609Z,179.75
2018-11-27T03:08:02.244Z,181.00
2018-11-27T03:10:34.025Z,178.25
2018-11-27T03:13:05.575Z,167.00
2018-11-27T03:15:37.295Z,178.25
2018-11-27T03:18:09.304Z,185.00
2018-11-27T03:20:40.977Z,175.50
2018-11-27T03:23:13.506Z,183.25
2018-11-27T03:25:44.925Z,173.00
2018-11-27T03:28:16.496Z,181.25
2018-11-27T03:30:50.134Z,175.25
2018-11-27T03:33:21.732Z,167.00
2018-11-27T03:35:53.401Z,170.25
2018-11-27T03:38:26.239Z,159.00
2018-11-27T03:40:58.031Z,163.50
2018-11-27T03:43:29.617Z,158.25
2018-11-27T03:46:01.225Z,147.75
2018-11-27T03:48:32.610Z,146.00
2018-11-27T03:51:04.431Z,156.00
2018-11-27T03:53:36.754Z,151.75
2018-11-27T03:56:09.205Z,154.00
2018-11-27T03:58:40.809Z,156.00
2018-11-27T04:01:12.353Z,154.50
2018-11-27T04:03:43.926Z,149.50
2018-11-27T04:06:15.425Z,149.00
2018-11-27T04:08:47.700Z,147.25
2018-11-27T04:11:19.406Z,145.50
2018-11-27T04:13:51.883Z,156.75
2018-11-27T04:16:23.422Z,152.25
2018-11-27T04:18:54.996Z,161.75
2018-11-27T04:21:26.558Z,159.00
2018-11-27T04:23:58.452Z,147.50
2018-11-27T04:26:30.192Z,157.00
2018-11-27T04:29:01.821Z,154.25
2018-11-27T04:31:33.370Z,150.00
2018-11-27T04:34:05.449Z,150.25
2018-11-27T04:36:36.741Z,149.50
2018-11-27T04:39:10.746Z,156.00
2018-11-27T04:41:43.361Z,151.75
2018-11-27T04:44:15.492Z,149.00
2018-11-27T04:46:47.990Z,144.50
2018-11-27T04:49:20.240Z,141.75
2018-11-27T04:51:52.132Z,136.75
2018-11-27T04:54:24.487Z,145.50
2018-11-27T04:56:56.125Z,141.75
2018-11-27T04:59:28.130Z,150.50
2018-11-27T05:02:00.965Z,155.25
2018-11-27T05:04:34.013Z,161.25
2018-11-27T05:07:06.814Z,158.25
2018-11-27T05:09:38.823Z,163.25
2018-11-27T05:12:10.764Z,160.25
2018-11-27T05:14:42.363Z,151.50
2018-11-27T05:17:14.885Z,159.25
2018-11-27T05:19:48.171Z,142.00
2018-11-27T05:22:21.086Z,146.25
2018-11-27T05:24:53.505Z,155.25
2018-11-27T05:27:25.685Z,151.50
2018-11-27T05:29:57.220Z,149.25
2018-11-27T05:32:28.894Z,157.75
2018-11-27T05:35:01.296Z,156.75
2018-11-27T05:37:32.690Z,157.75
2018-11-27T05:40:04.158Z,160.25
2018-11-27T05:42:36.851Z,170.25
2018-11-27T05:45:11.659Z,152.00
2018-11-27T05:47:43.605Z,157.25
2018-11-27T05:50:16.029Z,148.50
2018-11-27T05:52:47.810Z,155.25
2018-11-27T05:55:19.823Z,148.50
2018-11-27T05:57:53.334Z,152.50
2018-11-27T06:00:26.206Z,140.50
2018-11-27T06:03:03.809Z,129.00
2018-11-27T06:05:35.399Z,130.25
2018-11-27T06:08:08.138Z,137.00
2018-11-27T06:10:39.659Z,132.00
2018-11-27T06:13:11.160Z,133.25
2018-11-27T06:15:42.529Z,126.50
2018-11-27T06:18:14.850Z,119.00
2018-11-27T06:20:47.339Z,123.25
2018-11-27T06:23:19.012Z,112.50
2018-11-27T06:25:52.027Z,133.00
2018-11-27T06:28:23.754Z,117.00
2018-11-27T06:30:57.094Z,130.50
2018-11-27T06:33:28.732Z,118.25
2018-11-27T06:36:00.724Z,126.00
2018-11-27T06:38:35.045Z,126.50
2018-11-27T06:41:07.816Z,123.50
2018-11-27T06:43:39.898Z,113.75
2018-11-27T06:46:12.333Z,116.25
2018-11-27T06:48:43.815Z,120.50
2018-11-27T06:51:16.693Z,121.00
2018-11-27T06:53:50.378Z,103.50
2018-11-27T06:56:23.249Z,109.75
2018-11-27T06:58:55.550Z,101.00
2018-11-27T07:01:27.942Z,108.00
2018-11-27T07:03:59.622Z,96.60
2018-11-27T07:06:31.353Z,94.00
2018-11-27T07:09:04.155Z,96.50
2018-11-27T07:11:36.812Z,99.20
2018-11-27T07:14:10.013Z,98.50
2018-11-27T07:16:41.638Z,96.00
2018-11-27T07:19:15.945Z,99.40
2018-11-27T07:21:48.957Z,94.00
2018-11-27T07:24:21.370Z,98.00
2018-11-27T07:26:53.464Z,97.00
2018-11-27T07:29:25.023Z,102.50
2018-11-27T07:31:58.148Z,96.00
2018-11-27T07:34:30.155Z,102.00
2018-11-27T07:37:03.594Z,98.40
2018-11-27T07:39:35.328Z,100.25
2018-11-27T07:42:08.061Z,88.00
2018-11-27T07:44:40.750Z,95.60
2018-11-27T07:47:12.445Z,85.60
2018-11-27T07:49:44.568Z,97.40
2018-11-27T07:52:16.517Z,98.40
2018-11-27T07:54:49.828Z,94.20
2018-11-27T07:57:22.035Z,89.80
2018-11-27T07:59:54.644Z,94.60
2018-11-27T08:02:26.100Z,90.20
2018-11-27T08:04:57.845Z,88.60
2018-11-27T08:07:29.624Z,89.40
2018-11-27T08:10:01.003Z,94.40
2018-11-27T08:12:32.809Z,90.20
2018-11-27T08:15:05.283Z,87.80
2018-11-27T08:17:37.060Z,88.60
2018-11-27T08:20:10.458Z,86.00
2018-11-27T08:22:43.334Z,85.20
2018-11-27T08:25:17.912Z,86.60
2018-11-27T08:27:50.915Z,87.00
2018-11-27T08:30:27.193Z,91.40
2018-11-27T08:33:02.919Z,89.60
2018-11-27T08:35:36.015Z,90.20
2018-11-27T08:38:07.826Z,85.60
2018-11-27T08:40:40.737Z,88.40
2018-11-27T08:43:13.483Z,96.20
2018-11-27T08:45:45.106Z,90.40
2018-11-27T08:48:17.920Z,91.40
2018-11-27T08:50:51.672Z,82.80
2018-11-27T08:53:23.411Z,79.40
2018-11-27T08:55:55.782Z,80.40
2018-11-27T08:58:31.272Z,82.60
2018-11-27T09:01:02.827Z,79.60
2018-11-27T09:03:34.611Z,80.60
2018-11-27T09:06:07.376Z,86.20
2018-11-27T09:08:44.052Z,88.80
2018-11-27T09:11:20.800Z,91.40
2018-11-27T09:13:54.330Z,89.80
2018-11-27T09:16:32.382Z,78.20
2018-11-27T09:19:09.197Z,77.60
2018-11-27T09:21:47.304Z,80.60
2018-11-27T09:24:21.973Z,85.60
2018-11-27T09:26:53.562Z,80.60
2018-11-27T09:29:25.820Z,84.80
2018-11-27T09:32:05.360Z,75.40
2018-11-27T09:34:39.395Z,77.20
2018-11-27T09:37:11.000Z,84.20
2018-11-27T09:39:44.885Z,81.00
2018-11-27T09:42:19.724Z,87.20
2018-11-27T09:44:55.497Z,86.40
2018-11-27T09:47:28.231Z,93.40
2018-11-27T09:50:00.183Z,92.80
2018-11-27T09:52:32.647Z,100.40
2018-11-27T09:55:06.048Z,104.50
2018-11-27T09:57:39.221Z,102.80
2018-11-27T10:00:46.466Z,95.60
2018-11-27T10:03:18.787Z,101.60
2018-11-27T10:05:50.506Z,95.00
2018-11-27T10:08:23.055Z,107.00
2018-11-27T10:10:55.045Z,98.00
2018-11-27T10:13:28.728Z,106.25
2018-11-27T10:16:00.697Z,97.50
2018-11-27T10:18:32.599Z,102.00
2018-11-27T10:21:06.390Z,104.50
2018-11-27T10:23:39.836Z,105.25
2018-11-27T10:26:12.923Z,91.40
2018-11-27T10:28:45.754Z,92.80
2018-11-27T10:31:21.876Z,98.40
2018-11-27T10:33:54.910Z,98.80
2018-11-27T10:36:27.700Z,96.80
2018-11-27T10:39:04.563Z,90.80
2018-11-27T10:41:37.883Z,96.00
2018-11-27T10:44:10.269Z,88.40
2018-11-27T10:46:42.816Z,88.60
2018-11-27T10:49:16.588Z,87.80
2018-11-27T10:51:48.601Z,85.00
2018-11-27T10:54:21.575Z,85.60
2018-11-27T10:59:40.638Z,90.40
2018-11-27T11:02:18.289Z,83.60
2018-11-27T11:04:51.141Z,93.20
2018-11-27T11:07:24.919Z,88.00
2018-11-27T11:09:56.631Z,84.20
2018-11-27T11:12:28.429Z,86.40
2018-11-27T11:15:01.925Z,89.60
2018-11-27T11:17:34.626Z,87.20
2018-11-27T11:20:12.457Z,88.00
2018-11-27T11:22:44.779Z,94.60
2018-11-27T11:25:19.746Z,87.20
2018-11-27T11:27:58.486Z,87.20
2018-11-27T11:33:40.082Z,87.00
2018-11-27T11:36:16.832Z,96.20
2018-11-27T11:45:43.628Z,87.40
2018-11-27T11:51:43.687Z,89.80
2018-11-27T11:54:37.235Z,89.60
2018-11-27T11:57:34.405Z,84.80
2018-11-27T12:00:27.817Z,94.00
2018-11-27T12:03:20.522Z,94.60
2018-11-27T12:06:07.018Z,97.00
2018-11-27T12:08:47.168Z,97.60
2018-11-27T12:11:44.941Z,96.40
2018-11-27T12:14:19.355Z,97.00
2018-11-27T12:17:09.944Z,99.20
2018-11-27T12:19:54.217Z,99.80
2018-11-27T12:22:34.009Z,96.80
2018-11-27T12:25:23.969Z,91.60
2018-11-27T12:27:54.653Z,96.80
2018-11-27T12:30:28.243Z,89.20
2018-11-27T12:32:59.948Z,94.40
2018-11-27T12:35:31.970Z,94.60
2018-11-27T12:38:04.082Z,95.00
2018-11-27T12:40:36.696Z,101.00
2018-11-27T12:43:08.406Z,107.50
2018-11-27T12:45:40.067Z,111.75
2018-11-27T12:48:11.667Z,113.25
2018-11-27T12:50:45.635Z,122.25
2018-11-27T12:53:18.752Z,112.00
2018-11-27T12:55:53.354Z,124.50
2018-11-27T12:58:25.105Z,129.25
2018-11-27T13:00:56.670Z,132.50
2018-11-27T13:03:28.304Z,139.00
2018-11-27T13:05:59.832Z,139.75
2018-11-27T13:08:31.746Z,139.50
2018-11-27T13:11:03.283Z,144.25
2018-11-27T13:13:35.814Z,141.50
2018-11-27T13:16:07.363Z,144.00
2018-11-27T13:18:40.773Z,136.25
2018-11-27T13:21:17.125Z,134.50
2018-11-27T13:23:48.600Z,137.25
2018-11-27T13:26:20.359Z,131.25
2018-11-27T13:28:51.906Z,130.75
2018-11-27T13:31:27.616Z,133.00
2018-11-27T13:34:05.464Z,123.75
2018-11-27T13:36:37.290Z,120.25
2018-11-27T13:39:18.851Z,122.25
2018-11-27T13:41:50.729Z,126.75
2018-11-27T13:44:22.454Z,124.50
2018-11-27T13:46:53.987Z,119.00
2018-11-27T13:49:25.474Z,126.50
2018-11-27T13:51:57.064Z,133.25
2018-11-27T13:54:29.451Z,124.50
2018-11-27T13:57:01.050Z,133.25
2018-11-27T13:59:33.012Z,139.00
2018-11-27T14:02:04.941Z,148.75
2018-11-27T14:04:36.614Z,150.75
2018-11-27T14:07:08.467Z,144.00
2018-11-27T14:09:41.773Z,153.50
2018-11-27T14:12:13.658Z,145.50
2018-11-27T14:14:45.609Z,144.75
2018-11-27T14:17:17.545Z,130.50
2018-11-27T14:19:50.137Z,142.00
2018-11-27T14:22:25.081Z,140.50
2018-11-27T14:24:54.229Z,146.50
2018-11-27T14:27:25.957Z,135.75
2018-11-27T14:29:57.688Z,140.00
2018-11-27T14:32:29.568Z,135.75
2018-11-27T14:35:01.348Z,140.00
2018-11-27T14:37:33.207Z,126.75
2018-11-27T14:40:06.556Z,144.50
2018-11-27T14:42:38.883Z,145.75
2018-11-27T14:45:15.286Z,138.50
2018-11-27T14:47:47.994Z,145.25
2018-11-27T14:50:19.748Z,147.00
2018-11-27T14:52:51.488Z,144.00
2018-11-27T14:55:25.235Z,154.25
2018-11-27T14:57:57.241Z,145.25
2018-11-27T15:00:29.223Z,142.50
2018-11-27T15:03:01.014Z,134.25
2018-11-27T15:05:34.066Z,147.50
2018-11-27T15:08:06.751Z,160.50
2018-11-27T15:10:38.855Z,148.00
2018-11-27T15:13:11.475Z,146.75
2018-11-27T15:15:46.138Z,153.25
2018-11-27T15:18:18.775Z,150.25
2018-11-27T15:20:51.244Z,146.50
2018-11-27T15:23:22.946Z,172.50
2018-11-27T15:25:54.738Z,207.60
2018-11-27T15:28:26.459Z,209.20
2018-11-27T15:30:58.472Z,134.75
2018-11-27T15:33:30.401Z,152.50
2018-11-27T15:36:02.008Z,152.50
2018-11-27T15:38:33.882Z,147.75
2018-11-27T15:41:05.979Z,145.75
2018-11-27T15:43:37.639Z,155.25
2018-11-27T15:46:09.139Z,134.00
2018-11-27T15:48:40.813Z,139.50
2018-11-27T15:51:12.291Z,141.25
2018-11-27T15:53:45.210Z,147.25
2018-11-27T15:56:16.888Z,152.25
2018-11-27T15:58:48.444Z,152.00
2018-11-27T16:01:20.976Z,153.00
2018-11-27T16:03:52.525Z,150.25
2018-11-27T16:06:24.048Z,149.50
2018-11-27T16:08:56.041Z,154.50
2018-11-27T16:11:27.897Z,156.00
2018-11-27T16:14:00.636Z,150.25
2018-11-27T16:16:32.408Z,147.75
2018-11-27T16:19:05.154Z,143.00
2018-11-27T16:21:37.034Z,147.50
2018-11-27T16:24:08.960Z,145.50
2018-11-27T16:26:40.964Z,133.25
2018-11-27T16:29:12.965Z,137.00
2018-11-27T16:31:44.995Z,144.50
2018-11-27T16:34:17.003Z,143.00
2018-11-27T16:36:48.770Z,139.00
2018-11-27T16:39:20.557Z,141.75
2018-11-27T16:41:53.279Z,140.00
2018-11-27T16:44:25.315Z,139.75
2018-11-27T16:46:57.418Z,137.75
2018-11-27T16:49:29.598Z,138.50
2018-11-27T16:52:01.191Z,134.75
2018-11-27T16:54:33.037Z,131.50
2018-11-27T16:57:05.266Z,139.50
2018-11-27T16:59:37.001Z,133.50
2018-11-27T17:02:08.896Z,123.25
2018-11-27T17:04:41.079Z,131.00
2018-11-27T17:07:12.718Z,122.75
2018-11-27T17:09:44.291Z,127.75
2018-11-27T17:12:16.698Z,125.75
2018-11-27T17:14:48.269Z,121.75
2018-11-27T17:17:20.011Z,124.00
2018-11-27T17:19:51.603Z,127.25
2018-11-27T17:22:23.318Z,123.00
2018-11-27T17:24:54.676Z,122.50
2018-11-27T17:27:27.328Z,120.75
2018-11-27T17:29:59.358Z,117.00
2018-11-27T17:32:31.428Z,112.00
2018-11-27T17:35:03.457Z,118.00
2018-11-27T17:37:35.480Z,122.75
2018-11-27T17:40:09.005Z,121.00
2018-11-27T17:42:41.470Z,117.75
2018-11-27T17:45:16.679Z,117.00
2018-11-27T17:47:48.877Z,118.50
2018-11-27T17:50:20.891Z,110.75
2018-11-27T17:52:52.848Z,107.50
2018-11-27T17:55:24.799Z,103.00
2018-11-27T17:57:56.943Z,110.75
2018-11-27T18:00:30.721Z,123.50
2018-11-27T18:03:04.688Z,119.75
2018-11-27T18:05:36.382Z,121.50
2018-11-27T18:08:09.019Z,116.50
2018-11-27T18:10:40.936Z,115.25
2018-11-27T18:13:13.431Z,122.25
2018-11-27T18:15:45.394Z,107.50
2018-11-27T18:18:17.206Z,116.25
2018-11-27T18:20:49.567Z,117.75
2018-11-27T18:23:21.799Z,117.75
2018-11-27T18:25:53.976Z,117.75
2018-11-27T18:28:25.911Z,117.25
2018-11-27T18:30:57.656Z,112.50
2018-11-27T18:33:29.307Z,120.50
2018-11-27T18:36:01.168Z,112.00
2018-11-27T18:38:32.984Z,110.50
2018-11-27T18:41:05.113Z,110.75
2018-11-27T18:43:37.067Z,111.00
2018-11-27T18:46:10.798Z,116.75
2018-11-27T18:48:43.092Z,109.50
2018-11-27T18:51:15.660Z,124.50
2018-11-27T18:53:47.330Z,120.00
2018-11-27T18:56:19.120Z,118.75
2018-11-27T18:58:51.006Z,114.50
2018-11-27T19:01:23.087Z,114.50
2018-11-27T19:03:54.945Z,118.00
2018-11-27T19:06:27.099Z,112.75
2018-11-27T19:08:59.777Z,110.25
2018-11-27T19:11:31.662Z,113.75
2018-11-27T19:14:04.433Z,116.75
2018-11-27T19:16:36.575Z,113.75
2018-11-27T19:19:08.469Z,115.25
2018-11-27T19:21:40.492Z,117.00
2018-11-27T19:24:12.735Z,115.25
2018-11-27T19:26:44.687Z,115.25
2018-11-27T19:29:16.298Z,111.00
2018-11-27T19:31:47.960Z,114.00
2018-11-27T19:34:19.733Z,125.00
2018-11-27T19:36:51.450Z,113.00
2018-11-27T19:39:23.603Z,123.50
2018-11-27T19:41:55.493Z,104.75
2018-11-27T19:44:28.369Z,109.50
2018-11-27T19:47:00.253Z,117.50
2018-11-27T19:49:37.985Z,109.75
2018-11-27T19:52:13.571Z,116.75
2018-11-27T19:54:45.527Z,113.00
2018-11-27T19:57:17.291Z,119.50
2018-11-27T19:59:49.399Z,111.75
2018-11-27T20:02:21.363Z,117.00
2018-11-27T20:04:53.325Z,114.00
2018-11-27T20:07:25.211Z,106.75
2018-11-27T20:09:57.550Z,116.75
2018-11-27T20:12:29.490Z,112.75
2018-11-27T20:15:02.416Z,115.50
2018-11-27T20:17:36.054Z,104.00
2018-11-27T20:20:09.480Z,119.75
2018-11-27T20:22:42.958Z,107.50
2018-11-27T20:25:17.639Z,119.00
2018-11-27T20:27:49.611Z,120.25
2018-11-27T20:30:24.459Z,110.50
2018-11-27T20:32:58.851Z,116.50
2018-11-27T20:35:31.240Z,111.50
2018-11-27T20:38:05.980Z,123.50
2018-11-27T20:40:37.902Z,119.75
2018-11-27T20:43:09.840Z,113.50
2018-11-27T20:45:42.161Z,122.25
2018-11-27T20:48:18.171Z,121.75
2018-11-27T20:50:52.587Z,108.50
2018-11-27T20:53:24.566Z,118.00
2018-11-27T20:55:56.804Z,125.00
2018-11-27T20:58:28.950Z,119.75
2018-11-27T21:01:01.182Z,114.00
2018-11-27T21:03:33.591Z,117.25
2018-11-27T21:06:06.017Z,112.50
2018-11-27T21:08:38.142Z,120.50
2018-11-27T21:11:10.711Z,114.25
2018-11-27T21:13:43.005Z,122.50
2018-11-27T21:16:15.251Z,116.50
2018-11-27T21:18:47.437Z,113.50
2018-11-27T21:21:19.573Z,119.00
2018-11-27T21:23:51.902Z,116.75
2018-11-27T21:26:23.802Z,121.00
2018-11-27T21:28:55.839Z,122.00
2018-11-27T21:31:27.725Z,128.50
2018-11-27T21:33:59.902Z,127.25
2018-11-27T21:36:31.904Z,119.50
2018-11-27T21:39:04.853Z,113.75
2018-11-27T21:41:36.962Z,112.50
2018-11-27T21:44:09.367Z,120.75
2018-11-27T21:46:41.849Z,119.75
2018-11-27T21:49:14.142Z,121.25
2018-11-27T21:51:46.283Z,128.00
2018-11-27T21:54:18.235Z,121.00
2018-11-27T21:56:50.765Z,121.25
2018-11-27T21:59:22.815Z,113.50
2018-11-27T22:01:54.761Z,117.25
2018-11-27T22:04:27.077Z,111.75
2018-11-27T22:06:59.239Z,117.25
2018-11-27T22:09:31.479Z,120.00
2018-11-27T22:12:04.551Z,117.50
2018-11-27T22:14:37.081Z,122.50
2018-11-27T22:17:09.843Z,118.75
2018-11-27T22:19:42.612Z,112.75
2018-11-27T22:22:14.365Z,120.50
2018-11-27T22:24:46.331Z,126.00
2018-11-27T22:27:18.191Z,122.00
2018-11-27T22:29:50.494Z,116.75
2018-11-27T22:32:22.511Z,122.75
2018-11-27T22:34:54.945Z,119.25
2018-11-27T22:37:28.110Z,130.50
2018-11-27T22:40:00.342Z,121.25
2018-11-27T22:42:32.574Z,127.25
2018-11-27T22:45:04.960Z,125.75
2018-11-27T22:47:37.656Z,123.75
2018-11-27T22:50:12.955Z,130.00
2018-11-27T22:52:44.492Z,119.50
2018-11-27T22:55:16.458Z,136.50
2018-11-27T22:57:48.505Z,118.50
2018-11-27T23:00:29.490Z,123.50
2018-11-27T23:03:01.670Z,122.00
2018-11-27T23:05:33.875Z,127.50
2018-11-27T23:08:05.887Z,116.75
2018-11-27T23:10:39.390Z,122.50
2018-11-27T23:13:11.256Z,124.50
2018-11-27T23:15:43.204Z,122.50
2018-11-27T23:18:15.473Z,124.00
2018-11-27T23:20:47.548Z,120.75
2018-11-27T23:23:19.314Z,113.25
2018-11-27T23:25:51.236Z,115.75
2018-11-27T23:28:23.236Z,112.50
2018-11-27T23:30:55.086Z,128.50
2018-11-27T23:33:26.933Z,117.75
2018-11-27T23:35:59.130Z,112.75
2018-11-27T23:38:31.411Z,117.75
2018-11-27T23:41:03.283Z,117.25
2018-11-27T23:43:35.331Z,118.75
2018-11-27T23:46:07.263Z,114.25
2018-11-27T23:48:39.639Z,112.50
2018-11-27T23:51:11.562Z,109.50
2018-11-27T23:53:43.456Z,121.00
2018-11-27T23:56:15.341Z,108.50
2018-11-27T23:58:47.631Z,113.75
